Historique des mesures à Cassis (13260), France
Quotidien Résumé Septembre 20, 2021 Unités:  Métrique    US   Métrique/US
Quotidien Hebdomadaire Mensuel Annuel
  Maximum: Minimum: Moyenne:
Température: 17.3 °C 9.9 °C 12.8 °C
Point de rosée: 10.6 °C 6.4 °C 8.3 °C
Humidité: 84% 58% 75%
Vitesse du vent: 16.2km/h 0km/h 4.8km/h
Rafales: 20.9km/h - -
Vent- - WNW
Pression: 1024.3 hPa 1016.9 hPa -
Précipitations: 0.0 mm    
Historical Graphs
 
 
Mesures pour : Septembre 20, 2021
Heure Temperature Point de rosée Pression Vent Vitesse du vent Rafales Humidité Pluie (par heure)
00:10 11.8 °C 7.7 °C 1024.3 hPa WNW 2.5 km/h 6.5 km/h 76% 0.0 mm
01:11 11.1 °C 7.6 °C 1023.8 hPa WNW 7.6 km/h 7.6 km/h 79% 0.0 mm
02:10 11.3 °C 7.4 °C 1023.8 hPa NW 3.2 km/h 6.1 km/h 77% 0.0 mm
03:11 11.1 °C 6.8 °C 1023.6 hPa NNW 5.8 km/h 7.6 km/h 75% 0.0 mm
04:10 10.6 °C 6.7 °C 1023.0 hPa NW 5.8 km/h 6.1 km/h 77% 0.0 mm
05:11 10.4 °C 6.5 °C 1022.8 hPa NW 4.7 km/h 9.7 km/h 77% 0.0 mm
06:10 10.3 °C 6.6 °C 1022.9 hPa Calm   4 km/h 78% 0.0 mm
07:11 9.9 °C 6.4 °C 1022.7 hPa NNW 5.8 km/h 7.2 km/h 79% 0.0 mm
08:10 10.7 °C 6.8 °C 1022.5 hPa NW 6.8 km/h 10.8 km/h 77% 0.0 mm
09:11 12.8 °C 7.9 °C 1022.6 hPa NW 3.6 km/h 7.2 km/h 72% 0.0 mm
10:10 13.6 °C 9 °C 1022.4 hPa NW 2.5 km/h 5.4 km/h 74% 0.0 mm
11:11 14.6 °C 9.8 °C 1022.2 hPa ESE 3.2 km/h 4.7 km/h 73% 0.0 mm
12:10 15.4 °C 10.6 °C 1021.4 hPa Calm   8.6 km/h 73% 0.0 mm
13:11 16.5 °C 9.4 °C 1020.6 hPa West 6.5 km/h 13 km/h 63% 0.0 mm
14:10 17.3 °C 8.9 °C 1019.9 hPa West 5 km/h 20.9 km/h 58% 0.0 mm
15:11 17.2 °C 9.6 °C 1019.5 hPa West 16.2 km/h 16.6 km/h 61% 0.0 mm
16:10 16.3 °C 10 °C 1019.0 hPa WNW 6.1 km/h 18.7 km/h 66% 0.0 mm
17:11 14.4 °C 9.2 °C 1018.7 hPa WNW 6.1 km/h 15.8 km/h 71% 0.0 mm
18:10 13.2 °C 8.8 °C 1018.5 hPa NW 3.6 km/h 6.1 km/h 75% 0.0 mm
19:11 12.2 °C 8.7 °C 1017.9 hPa WNW 5.8 km/h 11.5 km/h 79% 0.0 mm
20:10 12 °C 8.7 °C 1017.5 hPa Calm     80% 0.0 mm
21:11 11.9 °C 9.3 °C 1017.5 hPa WNW 8.6 km/h 9.4 km/h 84% 0.0 mm
22:10 11.6 °C 9 °C 1017.4 hPa Calm   4.3 km/h 84% 0.0 mm
23:11 10.8 °C 8 °C 1016.9 hPa NW 5.4 km/h 8.3 km/h 83% 0.0 mm
Observations météo à CASSIS
WU-History script by Weather Underground - 2 mb